Noord Nederlandse Zweefvliegclub

NL-0036 · Groninga, Países Bajos

METAR pasados NL-0036 · Noord Nederlandse Zweefvliegclub

A continuación puedes ver los METAR de los últimos días. Selecciona un año para ver los METAR más antiguos, desde el año 2007 en adelante.

3 de diciembre de 2022

Hora Código Tiempo Temp. Visibilidad Cielo nuboso Viento METAR/SPECI
18:55
M
1 °C 10 km+ 1.700 ft 070° 070° 9 kt METAR EHGG 031755Z AUTO 07009KT 040V100 9999 BKN017 OVC020 01/M02 Q1021 NOSIG
18:25
M
1 °C 10 km+ 1.700 ft 070° 070° 10 kt METAR EHGG 031725Z AUTO 07010KT 9999 BKN017 OVC020 01/M02 Q1021 NOSIG
17:55
M
1 °C 10 km+ 1.700 ft 070° 070° 8 kt METAR EHGG 031655Z AUTO 07008KT 040V100 9999 OVC017 01/M02 Q1021 NOSIG
17:25
M
1 °C 10 km+ 1.700 ft 070° 070° 10 kt METAR EHGG 031625Z AUTO 07010KT 020V100 9999 BKN017 BKN021 01/M02 Q1021 NOSIG
16:55
V
1 °C 10 km+ - 070° 070° 8 kt METAR EHGG 031555Z AUTO 07008KT 9999 FEW021 01/M02 Q1021 NOSIG
16:25
M
1 °C 10 km+ 2.200 ft 070° 070° 11 kt METAR EHGG 031525Z AUTO 07011KT 040V120 9999 SCT018 OVC022 01/M02 Q1022 NOSIG
15:55
M
1 °C 10 km+ 1.600 ft 070° 070° 12 kt METAR EHGG 031455Z AUTO 07012KT 9999 BKN016 OVC020 01/M02 Q1022 NOSIG
15:25
M
2 °C 10 km+ 2.000 ft 080° 080° 13 kt METAR EHGG 031425Z AUTO 08013KT 040V110 9999 SCT017 OVC020 02/M02 Q1022 TEMPO BKN014
14:55
V
2 °C 10 km+ - 070° 070° 11 kt METAR EHGG 031355Z AUTO 07011KT 040V100 9999 NSC 02/M02 Q1022 TEMPO BKN014
14:25
V
2 °C 10 km+ - 080° 080° 12 kt METAR EHGG 031325Z AUTO 08012KT 040V100 9999 FEW017 02/M02 Q1022 TEMPO BKN014
13:55
V
2 °C 10 km+ - 080° 080° 11 kt METAR EHGG 031255Z AUTO 08011KT 030V120 9999 FEW017 02/M02 Q1022 TEMPO BKN014
13:25
V
2 °C 10 km+ - 070° 070° 10 kt METAR EHGG 031225Z AUTO 07010KT 040V110 9999 FEW016 02/M01 Q1022 TEMPO BKN014
12:55
V
2 °C 10 km+ - 070° 070° 11 kt METAR EHGG 031155Z AUTO 07011KT 040V110 9999 FEW015 02/M01 Q1023 TEMPO BKN014
12:25
M
2 °C 10 km+ 1.900 ft 070° 070° 11 kt METAR EHGG 031125Z AUTO 07011KT 040V100 9999 SCT015 BKN019 02/M01 Q1023 TEMPO BKN014
11:55
M
2 °C 10 km+ 1.500 ft 060° 060° 12 kt METAR EHGG 031055Z AUTO 06012KT 9999 BKN015 02/M01 Q1023 TEMPO BKN014
11:25
V
2 °C 10 km+ - 070° 070° 12 kt METAR EHGG 031025Z AUTO 07012KT 030V100 9999 FEW014 02/M01 Q1023 TEMPO BKN014
10:55
M
2 °C 10 km+ 1.300 ft 070° 070° 10 kt METAR EHGG 030955Z AUTO 07010KT 9999 SCT011 BKN013 02/M00 Q1024 TEMPO BKN018
10:25
V
2 °C 10 km+ - 080° 080° 8 kt METAR EHGG 030925Z AUTO 08008KT 050V110 9999 FEW016 02/M00 Q1024 NOSIG
09:55
V
2 °C 10 km+ - 080° 080° 10 kt METAR EHGG 030855Z AUTO 08010KT 050V110 9999 NSC 02/M01 Q1024 TEMPO BKN016
09:25
V
2 °C 10 km+ - 070° 070° 8 kt METAR EHGG 030825Z AUTO 07008KT 9999 FEW013 SCT016 02/M00 Q1024 TEMPO BKN016
08:55
M
3 °C 10 km+ 1.600 ft 070° 070° 12 kt METAR EHGG 030755Z AUTO 07012KT 040V100 9999 SCT014 OVC016 03/M00 Q1024 TEMPO BKN014
08:25
M
3 °C 10 km+ 1.600 ft 060° 060° 11 kt METAR EHGG 030725Z AUTO 06011KT 020V100 9999 SCT013 BKN016 03/00 Q1024 NOSIG
07:55
V
3 °C 10 km+ - 070° 070° 10 kt METAR EHGG 030655Z AUTO 07010KT 040V100 9999 FEW014 SCT016 03/00 Q1024 NOSIG
07:25
V
3 °C 10 km+ - 070° 070° 13 kt METAR EHGG 030625Z AUTO 07013KT 040V100 9999 FEW014 SCT020 03/M00 Q1024 NOSIG
06:55
V
3 °C 10 km+ - 060° 060° 14 kt METAR EHGG 030555Z AUTO 06014KT 040V100 9999 FEW015 03/00 Q1024 NOSIG
06:25
V
3 °C 10 km+ - 060° 060° 14 kt METAR EHGG 030525Z AUTO 06014KT 020V090 9999 FEW020 03/00 Q1024 NOSIG
05:55
M
3 °C 10 km+ 1.800 ft 060° 060° 12 kt METAR EHGG 030455Z AUTO 06012KT 9999 BKN018 OVC021 03/00 Q1024
05:25
M
3 °C 10 km+ 2.000 ft 060° 060° 11 kt METAR EHGG 030425Z AUTO 06011KT 9999 BKN020 OVC024 03/00 Q1024
04:55
V
3 °C 10 km+ - 060° 060° 13 kt METAR EHGG 030355Z AUTO 06013KT 9999 SCT023 03/00 Q1024
04:25
V
3 °C 10 km+ - 070° 070° 9 kt METAR EHGG 030325Z AUTO 07009KT 9999 FEW022 SCT026 03/01 Q1024
03:55
M
4 °C 10 km+ 2.600 ft 070° 070° 9 kt METAR EHGG 030255Z AUTO 07009KT 030V100 9999 FEW016 SCT023 BKN026 04/01 Q1024
03:25
M
4 °C 10 km+ 1.600 ft 070° 070° 11 kt METAR EHGG 030225Z AUTO 07011KT 040V100 9999 BKN016 BKN019 OVC024 04/01 Q1025
02:55
M
4 °C 10 km+ 1.700 ft 070° 070° 11 kt METAR EHGG 030155Z AUTO 07011KT 040V100 9999 BKN017 OVC023 04/01 Q1025
02:25
V
4 °C 10 km+ - 060° 060° 11 kt METAR EHGG 030125Z AUTO 06011KT 030V090 9999 FEW016 04/01 Q1025
01:55
V
4 °C 10 km+ - 060° 060° 14 kt METAR EHGG 030055Z AUTO 06014KT 030V090 9999 FEW017 04/01 Q1025
01:25
M
4 °C 10 km+ 1.600 ft 040° 040° 7 kt METAR EHGG 030025Z AUTO 04007KT 9999 FEW013/// BKN016/// OVC019/// 04/02 Q1025
00:55
M
3 °C 10 km+ 1.600 ft 040° 040° 6 kt METAR EHGG 022355Z AUTO 04006KT 9999 SCT013 BKN016 BKN020 03/01 Q1025
00:25
M
3 °C 10 km+ 1.700 ft 030° 030° 6 kt METAR EHGG 022325Z AUTO 03006KT 9999 FEW013 BKN017 OVC024 03/00 Q1025

2 de diciembre de 2022

Hora Código Tiempo Temp. Visibilidad Cielo nuboso Viento METAR/SPECI
23:55
M
3 °C 10 km+ 1.400 ft 030° 030° 5 kt METAR EHGG 022255Z AUTO 03005KT 330V060 9999 BKN014 OVC016 03/M00 Q1026
23:25
M
3 °C 10 km+ 1.600 ft 050° 050° 8 kt METAR EHGG 022225Z AUTO 05008KT 020V080 9999 OVC016 03/M00 Q1026
22:55
M
3 °C 10 km+ 1.900 ft 050° 050° 8 kt METAR EHGG 022155Z AUTO 05008KT 020V080 9999 OVC019 03/M00 Q1026
22:25
M
2 °C 10 km+ 2.200 ft 050° 050° 8 kt METAR EHGG 022125Z AUTO 05008KT 9999 SCT019 OVC022 02/M01 Q1026 NOSIG
21:55
M
2 °C 10 km+ 2.500 ft 050° 050° 9 kt METAR EHGG 022055Z AUTO 05009KT 9999 OVC025 02/M01 Q1027 NOSIG
21:25
M
2 °C 10 km+ 2.300 ft 050° 050° 9 kt METAR EHGG 022025Z AUTO 05009KT 020V080 9999 BKN023 OVC027 02/M01 Q1027 NOSIG
20:55
M
2 °C 10 km+ 2.500 ft 070° 070° 8 kt METAR EHGG 021955Z AUTO 07008KT 9999 OVC025 02/M01 Q1027 NOSIG
20:25
M
2 °C 10 km+ 1.900 ft 080° 080° 11 kt METAR EHGG 021925Z AUTO 08011KT 050V120 9999 SCT016 BKN019 OVC023 02/M02 Q1027 NOSIG
19:55
M
2 °C 10 km+ 1.600 ft 060° 060° 11 kt METAR EHGG 021855Z AUTO 06011KT 030V090 9999 OVC016 02/M01 Q1027 NOSIG
19:25
M
2 °C 10 km+ 1.700 ft 070° 070° 11 kt METAR EHGG 021825Z AUTO 07011KT 9999 BKN017 OVC020 02/M01 Q1027 NOSIG
18:55
M
2 °C 9 km 1.600 ft 060° 060° 12 kt METAR EHGG 021755Z AUTO 06012KT 020V100 9000 BKN016 OVC019 02/M01 Q1027 NOSIG
18:25
M
2 °C 7 km 2.000 ft 060° 060° 11 kt METAR EHGG 021725Z AUTO 06011KT 030V090 7000 SCT017 OVC020 02/M00 Q1027 BECMG 9999
17:55
M
2 °C 7 km 1.800 ft 060° 060° 11 kt METAR EHGG 021655Z AUTO 06011KT 7000 FEW015 BKN018 OVC022 02/M00 Q1026 NOSIG
17:25
M
2 °C 7 km 2.300 ft 060° 060° 9 kt METAR EHGG 021625Z AUTO 06009KT 7000 OVC023 02/M00 Q1026 NOSIG
16:55
M
2 °C 7 km 2.400 ft 070° 070° 10 kt METAR EHGG 021555Z AUTO 07010KT 7000 FEW015 OVC024 02/M00 Q1026 NOSIG
16:25
M
2 °C 7 km 1.500 ft 070° 070° 9 kt METAR EHGG 021525Z AUTO 07009KT 7000 FEW013 BKN015 OVC026 02/M01 Q1026 TEMPO BKN014
15:55
M
2 °C 7 km 1.100 ft 070° 070° 11 kt METAR EHGG 021455Z AUTO 07011KT 040V100 7000 BKN011 OVC014 02/M01 Q1026 BECMG BKN017
15:25
M
2 °C 8 km 1.100 ft 080° 080° 11 kt METAR EHGG 021425Z AUTO 08011KT 050V120 8000 BKN011/// OVC014/// 02/M01 Q1026 BECMG BKN017
14:55
M
2 °C 7 km 1.100 ft 070° 070° 8 kt METAR EHGG 021355Z AUTO 07008KT 040V110 7000 OVC011 02/M00 Q1026 BECMG 9999 BKN017
14:25
M
2 °C 7 km 1.200 ft 070° 070° 12 kt METAR EHGG 021325Z AUTO 07012KT 7000 SCT010 BKN012 OVC014 02/M00 Q1026 BECMG 9999 BKN017
13:55
M
2 °C 7 km 1.200 ft 070° 070° 11 kt METAR EHGG 021255Z AUTO 07011KT 040V110 7000 SCT010/// BKN012/// OVC015/// 02/M00 Q1026 BECMG 9999 BKN017
13:25
M
2 °C 6 km 1.000 ft 070° 070° 11 kt METAR EHGG 021225Z AUTO 07011KT 040V100 6000 BKN010 OVC012 02/M00 Q1026 BECMG 9999 BKN017
12:55
M
2 °C 6 km 1.000 ft 070° 070° 12 kt METAR EHGG 021155Z AUTO 07012KT 040V100 6000 BKN010 OVC012 02/00 Q1026 BECMG 9999 BKN017
12:25
M
2 °C 6 km 1.000 ft 060° 060° 12 kt METAR EHGG 021125Z AUTO 06012KT 6000 FEW009 OVC010 02/M00 Q1026 TEMPO BKN009
11:55
M
2 °C 6 km 1.000 ft 070° 070° 11 kt METAR EHGG 021055Z AUTO 07011KT 6000 FEW009 OVC010 02/M00 Q1026 TEMPO BKN009
11:25
M
2 °C 6 km 1.200 ft 060° 060° 12 kt METAR EHGG 021025Z AUTO 06012KT 6000 SCT010 BKN012 OVC014 02/M00 Q1026 TEMPO 9000 BKN040
10:55
M
2 °C 6 km 1.000 ft 070° 070° 11 kt METAR EHGG 020955Z AUTO 07011KT 6000 FEW009 OVC010 02/00 Q1026 TEMPO 9000 BKN040
10:25
M
2 °C 7 km 1.600 ft 070° 070° 11 kt METAR EHGG 020925Z AUTO 07011KT 030V100 7000 FEW011 SCT013 BKN016 02/M00 Q1026 BECMG 8000 SCT018 BKN040
09:55
M
2 °C 5 km - 070° 070° 9 kt METAR EHGG 020855Z AUTO 07009KT 040V110 5000 -DZ ////// 02/00 Q1026 TEMPO 4000 -DZ BKN009
09:25
M
2 °C 6 km 1.300 ft 060° 060° 13 kt METAR EHGG 020825Z AUTO 06013KT 030V090 6000 SCT010 BKN013 OVC016 02/00 Q1026 BECMG 5000 BR BKN009
08:55
M
2 °C 6 km 1.000 ft 070° 070° 12 kt METAR EHGG 020755Z AUTO 07012KT 040V100 6000 BKN010 OVC012 02/00 Q1026 BECMG 8000 TEMPO BKN017
08:25
M
3 °C 5 km 1.000 ft 050° 050° 8 kt METAR EHGG 020725Z AUTO 05008KT 020V080 5000 FEW009 BKN010 OVC013 03/01 Q1026 TEMPO 6000 NSW BKN009
07:55
M
2 °C 5 km 1.500 ft 030° 030° 5 kt METAR EHGG 020655Z AUTO 03005KT 360V070 5000 OVC015 02/01 Q1026 TEMPO 4000 BR
07:25
M
2 °C 5 km 1.000 ft 040° 040° 4 kt METAR EHGG 020625Z AUTO 04004KT 5000 BKN010 OVC012 02/01 Q1026 TEMPO BKN045
06:55
M
2 °C 5 km 1.000 ft 060° 060° 6 kt METAR EHGG 020555Z AUTO 06006KT 5000 OVC010 02/00 Q1026 BECMG BKN045
06:25
M
2 °C 6 km 1.300 ft 060° 060° 7 kt METAR EHGG 020525Z AUTO 06007KT 6000 OVC013 02/00 Q1026 BECMG BKN045
05:55
M
2 °C 7 km 1.500 ft 060° 060° 8 kt METAR EHGG 020455Z AUTO 06008KT 7000 FEW012 OVC015 02/M00 Q1026
05:25
M
2 °C 7 km - 050° 050° 7 kt METAR EHGG 020425Z AUTO 05007KT 7000 SCT014 02/M00 Q1026
04:55
M
2 °C 7 km - 060° 060° 5 kt METAR EHGG 020355Z AUTO 06005KT 030V090 7000 NSC 02/00 Q1026
04:25
M
2 °C 7 km - 050° 050° 6 kt METAR EHGG 020325Z AUTO 05006KT 7000 NSC 02/00 Q1027
03:55
M
2 °C 7 km - 060° 060° 8 kt METAR EHGG 020255Z AUTO 06008KT 7000 SCT016 02/M00 Q1027
03:25
M
2 °C 8 km 1.600 ft 060° 060° 8 kt METAR EHGG 020225Z AUTO 06008KT 8000 SCT014 OVC016 02/00 Q1027
02:55
M
2 °C 9 km 1.600 ft 070° 070° 9 kt METAR EHGG 020155Z AUTO 07009KT 9000 FEW013 OVC016 02/00 Q1027
02:25
M
3 °C 8 km 1.400 ft 050° 050° 9 kt METAR EHGG 020125Z AUTO 05009KT 8000 BKN014 OVC016 03/00 Q1027
01:55
M
3 °C 8 km 2.000 ft 060° 060° 7 kt METAR EHGG 020055Z AUTO 06007KT 8000 SCT016 BKN020 OVC046 03/00 Q1027
01:25
M
3 °C 8 km 1.600 ft 050° 050° 6 kt METAR EHGG 020025Z AUTO 05006KT 8000 OVC016/// 03/00 Q1027
00:55
M
3 °C 7 km 1.700 ft 050° 050° 7 kt METAR EHGG 012355Z AUTO 05007KT 7000 OVC017 03/01 Q1027
00:25
M
2 °C 7 km - 060° 060° 7 kt METAR EHGG 012325Z AUTO 06007KT 030V090 7000 NSC 02/00 Q1027

1 de diciembre de 2022

Hora Código Tiempo Temp. Visibilidad Cielo nuboso Viento METAR/SPECI
23:55
M
3 °C 7 km - 070° 070° 8 kt METAR EHGG 012255Z AUTO 07008KT 7000 NSC 03/01 Q1027
23:25
M
3 °C 7 km - 060° 060° 7 kt METAR EHGG 012225Z AUTO 06007KT 7000 FEW012 03/01 Q1028
22:55
M
4 °C 7 km - 080° 080° 5 kt METAR EHGG 012155Z AUTO 08005KT 7000 FEW010 04/01 Q1028
22:25
M
4 °C 6 km 1.200 ft 080° 080° 5 kt METAR EHGG 012125Z AUTO 08005KT 050V110 6000 OVC012 04/02 Q1028 NOSIG
21:55
M
4 °C 6 km - 080° 080° 4 kt METAR EHGG 012055Z AUTO 08004KT 060V130 6000 NSC 04/02 Q1028 BECMG BKN014
21:25
M
4 °C 6 km - 090° 090° 6 kt METAR EHGG 012025Z AUTO 09006KT 060V120 6000 NSC 04/02 Q1028 BECMG BKN014
20:55
M
4 °C 6 km - 070° 070° 7 kt METAR EHGG 011955Z AUTO 07007KT 6000 SCT018 04/02 Q1028 BECMG BKN014
20:25
M
4 °C 5 km - 060° 060° 7 kt METAR EHGG 011925Z AUTO 06007KT 5000 FEW013 04/02 Q1028 BECMG BKN014
19:55
M
4 °C 5 km 1.400 ft 060° 060° 7 kt METAR EHGG 011855Z AUTO 06007KT 5000 FEW012/// BKN014/// BKN016/// 04/02 Q1028 NOSIG
19:25
M
4 °C 5 km 1.500 ft 060° 060° 7 kt METAR EHGG 011825Z AUTO 06007KT 040V100 5000 OVC015/// 04/03 Q1028 BECMG BKN014
18:55
M
5 °C 5 km 1.200 ft 060° 060° 7 kt METAR EHGG 011755Z AUTO 06007KT 5000 BKN012 OVC017 05/03 Q1028 BECMG BKN014
18:25
M
5 °C 5 km 1.400 ft 070° 070° 5 kt METAR EHGG 011725Z AUTO 07005KT 5000 SCT012 OVC014 05/03 Q1028 BECMG BKN015
17:55
M
5 °C 5 km 4.900 ft 070° 070° 5 kt METAR EHGG 011655Z AUTO 07005KT 5000 FEW012 SCT016 OVC049 05/03 Q1028 BECMG NSW
17:25
M
5 °C 5 km 4.900 ft 070° 070° 6 kt METAR EHGG 011625Z AUTO 07006KT 5000 BR OVC049 05/03 Q1028 BECMG NSW
16:55
I
5 °C 4,5 km 4.600 ft 060° 060° 5 kt METAR EHGG 011555Z AUTO 06005KT 4500 BR OVC046 05/03 Q1028 BECMG 6000 NSW
16:25
M
5 °C 5 km 4.500 ft 050° 050° 6 kt METAR EHGG 011525Z AUTO 05006KT 5000 OVC045 05/03 Q1028 NOSIG
15:55
M
5 °C 6 km 4.700 ft 070° 070° 6 kt METAR EHGG 011455Z AUTO 07006KT 6000 FEW019 OVC047 05/04 Q1028 TEMPO BKN012
15:25
M
6 °C 6 km 1.800 ft 050° 050° 6 kt METAR EHGG 011425Z AUTO 05006KT 6000 BKN018 OVC046 06/04 Q1028 TEMPO BKN012
14:55
M
6 °C 7 km 1.900 ft 070° 070° 6 kt METAR EHGG 011355Z AUTO 07006KT 7000 FEW011 OVC019 06/04 Q1028 TEMPO BKN008
14:25
M
6 °C 8 km 1.300 ft 060° 060° 5 kt METAR EHGG 011325Z AUTO 06005KT 030V100 8000 SCT010 BKN013 OVC016 06/04 Q1028 TEMPO 6000 BKN008
13:55
I
6 °C 7 km 800 ft 040° 040° 5 kt METAR EHGG 011255Z AUTO 04005KT 010V070 7000 BKN008/// BKN009/// OVC010/// 06/04 Q1028 TEMPO BKN012
13:25
M
6 °C 5 km 3.800 ft 050° 050° 3 kt METAR EHGG 011225Z AUTO 05003KT 360V080 5000 FEW009 BKN038 06/04 Q1028 BECMG 8000 TEMPO BKN012
12:55
M
6 °C 6 km 1.100 ft 050° 050° 4 kt METAR EHGG 011155Z AUTO 05004KT 6000 SCT009 BKN011 BKN031 06/04 Q1028 BECMG BKN015
12:25
M
6 °C 5 km 2.400 ft 050° 050° 3 kt METAR EHGG 011125Z AUTO 05003KT 020V090 5000 FEW008 OVC024 06/04 Q1028 TEMPO BKN014
11:55
I
6 °C 4,8 km - 040° 040° 3 kt METAR EHGG 011055Z AUTO 04003KT 020V090 4800 HZ SCT011 06/05 Q1028 BECMG 8000 NSW
11:25
I
5 °C 4,4 km - 350° 350° 1 kt METAR EHGG 011025Z AUTO 35001KT 4400 BR NCD 05/05 Q1028 BECMG 6000 NSW
10:55
I
4 °C 3,4 km - Var Var 1 kt METAR EHGG 010955Z AUTO VRB01KT 3400 BR NCD 04/04 Q1028 BECMG 6000

Nosotros y terceros seguimos tu comportamiento en Internet en nuestro sitio web con cookies. Si continúas, asumimos que estás de acuerdo con nuestra Política de cookies.